sensor_id;sensor_type;location;lat;lon;timestamp;temperature;humidity
15969;DHT22;8085;53.472;9.794;2024-02-21T00:00:54;9.20;99.90
15969;DHT22;8085;53.472;9.794;2024-02-21T00:03:22;9.10;99.90
15969;DHT22;8085;53.472;9.794;2024-02-21T00:05:49;9.10;99.90
15969;DHT22;8085;53.472;9.794;2024-02-21T00:08:16;9.10;99.90
15969;DHT22;8085;53.472;9.794;2024-02-21T00:10:43;9.10;99.90
15969;DHT22;8085;53.472;9.794;2024-02-21T00:13:10;9.10;99.90
15969;DHT22;8085;53.472;9.794;2024-02-21T00:15:37;9.10;99.90
15969;DHT22;8085;53.472;9.794;2024-02-21T00:18:04;9.10;99.90
15969;DHT22;8085;53.472;9.794;2024-02-21T00:20:33;9.10;99.90
15969;DHT22;8085;53.472;9.794;2024-02-21T00:23:00;9.10;99.90
15969;DHT22;8085;53.472;9.794;2024-02-21T00:25:26;9.10;99.90
15969;DHT22;8085;53.472;9.794;2024-02-21T00:27:53;9.10;99.90
15969;DHT22;8085;53.472;9.794;2024-02-21T00:30:20;9.10;99.90
15969;DHT22;8085;53.472;9.794;2024-02-21T00:32:47;9.10;99.90
15969;DHT22;8085;53.472;9.794;2024-02-21T00:35:14;9.00;99.90
15969;DHT22;8085;53.472;9.794;2024-02-21T00:37:43;9.20;99.90
15969;DHT22;8085;53.472;9.794;2024-02-21T00:40:10;9.10;99.90
15969;DHT22;8085;53.472;9.794;2024-02-21T00:42:37;9.00;99.90
15969;DHT22;8085;53.472;9.794;2024-02-21T00:45:05;9.00;99.90
15969;DHT22;8085;53.472;9.794;2024-02-21T00:47:32;9.00;99.90
15969;DHT22;8085;53.472;9.794;2024-02-21T00:49:59;9.00;99.90
15969;DHT22;8085;53.472;9.794;2024-02-21T00:52:26;9.10;99.90
15969;DHT22;8085;53.472;9.794;2024-02-21T00:54:54;9.00;99.90
15969;DHT22;8085;53.472;9.794;2024-02-21T00:57:21;9.00;99.90
15969;DHT22;8085;53.472;9.794;2024-02-21T00:59:49;9.10;99.90
15969;DHT22;8085;53.472;9.794;2024-02-21T01:02:16;9.10;99.90
15969;DHT22;8085;53.472;9.794;2024-02-21T01:04:43;9.10;99.90
15969;DHT22;8085;53.472;9.794;2024-02-21T01:07:10;9.10;99.90
15969;DHT22;8085;53.472;9.794;2024-02-21T01:09:37;9.10;99.90
15969;DHT22;8085;53.472;9.794;2024-02-21T01:12:06;9.20;99.90
15969;DHT22;8085;53.472;9.794;2024-02-21T01:14:32;9.10;99.90
15969;DHT22;8085;53.472;9.794;2024-02-21T01:16:59;9.20;99.90
15969;DHT22;8085;53.472;9.794;2024-02-21T01:19:26;9.20;99.90
15969;DHT22;8085;53.472;9.794;2024-02-21T01:21:53;9.10;99.90
15969;DHT22;8085;53.472;9.794;2024-02-21T01:24:20;9.10;99.90
15969;DHT22;8085;53.472;9.794;2024-02-21T01:26:47;9.10;99.90
15969;DHT22;8085;53.472;9.794;2024-02-21T01:29:15;9.10;99.90
15969;DHT22;8085;53.472;9.794;2024-02-21T01:31:42;9.10;99.90
15969;DHT22;8085;53.472;9.794;2024-02-21T01:34:09;9.10;99.90
15969;DHT22;8085;53.472;9.794;2024-02-21T01:36:36;9.10;99.90
15969;DHT22;8085;53.472;9.794;2024-02-21T01:39:03;9.10;99.90
15969;DHT22;8085;53.472;9.794;2024-02-21T01:41:30;9.10;99.90
15969;DHT22;8085;53.472;9.794;2024-02-21T01:43:57;9.10;99.90
15969;DHT22;8085;53.472;9.794;2024-02-21T01:46:26;9.00;99.90
15969;DHT22;8085;53.472;9.794;2024-02-21T01:48:55;8.90;99.90
15969;DHT22;8085;53.472;9.794;2024-02-21T01:51:22;8.90;99.90
15969;DHT22;8085;53.472;9.794;2024-02-21T01:53:51;8.90;99.90
15969;DHT22;8085;53.472;9.794;2024-02-21T01:56:18;8.90;99.90
15969;DHT22;8085;53.472;9.794;2024-02-21T01:58:46;8.90;99.90
15969;DHT22;8085;53.472;9.794;2024-02-21T02:01:15;8.80;99.90
15969;DHT22;8085;53.472;9.794;2024-02-21T02:03:45;8.80;99.90
15969;DHT22;8085;53.472;9.794;2024-02-21T02:06:12;8.80;99.90
15969;DHT22;8085;53.472;9.794;2024-02-21T02:08:39;8.80;99.90
15969;DHT22;8085;53.472;9.794;2024-02-21T02:11:06;9.00;99.90
15969;DHT22;8085;53.472;9.794;2024-02-21T02:13:33;8.90;99.90
15969;DHT22;8085;53.472;9.794;2024-02-21T02:16:00;8.90;99.90
15969;DHT22;8085;53.472;9.794;2024-02-21T02:18:27;8.80;99.90
15969;DHT22;8085;53.472;9.794;2024-02-21T02:20:55;8.90;99.90
15969;DHT22;8085;53.472;9.794;2024-02-21T02:23:25;8.90;99.90
15969;DHT22;8085;53.472;9.794;2024-02-21T02:25:52;8.80;99.90
15969;DHT22;8085;53.472;9.794;2024-02-21T02:28:20;8.90;99.90
15969;DHT22;8085;53.472;9.794;2024-02-21T02:30:48;8.80;99.90
15969;DHT22;8085;53.472;9.794;2024-02-21T02:33:15;8.80;99.90
15969;DHT22;8085;53.472;9.794;2024-02-21T02:35:43;8.90;99.90
15969;DHT22;8085;53.472;9.794;2024-02-21T02:38:10;8.90;99.90
15969;DHT22;8085;53.472;9.794;2024-02-21T02:40:39;8.90;99.90
15969;DHT22;8085;53.472;9.794;2024-02-21T02:43:06;8.90;99.90
15969;DHT22;8085;53.472;9.794;2024-02-21T02:45:33;9.00;99.90
15969;DHT22;8085;53.472;9.794;2024-02-21T02:48:00;9.00;99.90
15969;DHT22;8085;53.472;9.794;2024-02-21T02:50:27;9.00;99.90
15969;DHT22;8085;53.472;9.794;2024-02-21T02:52:55;9.00;99.90
15969;DHT22;8085;53.472;9.794;2024-02-21T02:55:22;9.00;99.90
15969;DHT22;8085;53.472;9.794;2024-02-21T02:57:50;9.00;99.90
15969;DHT22;8085;53.472;9.794;2024-02-21T03:00:17;9.00;99.90
15969;DHT22;8085;53.472;9.794;2024-02-21T03:02:48;9.00;99.90
15969;DHT22;8085;53.472;9.794;2024-02-21T03:05:17;9.00;99.90
15969;DHT22;8085;53.472;9.794;2024-02-21T03:07:44;9.00;99.90
15969;DHT22;8085;53.472;9.794;2024-02-21T03:10:11;9.00;99.90
15969;DHT22;8085;53.472;9.794;2024-02-21T03:12:39;9.00;99.90
15969;DHT22;8085;53.472;9.794;2024-02-21T03:15:08;9.20;99.90
15969;DHT22;8085;53.472;9.794;2024-02-21T03:17:35;9.10;99.90
15969;DHT22;8085;53.472;9.794;2024-02-21T03:20:02;9.10;99.90
15969;DHT22;8085;53.472;9.794;2024-02-21T03:22:31;9.10;99.90
15969;DHT22;8085;53.472;9.794;2024-02-21T03:24:58;9.20;99.90
15969;DHT22;8085;53.472;9.794;2024-02-21T03:27:25;9.10;99.90
15969;DHT22;8085;53.472;9.794;2024-02-21T03:29:52;9.20;99.90
15969;DHT22;8085;53.472;9.794;2024-02-21T03:32:20;9.20;99.90
15969;DHT22;8085;53.472;9.794;2024-02-21T03:34:47;9.20;99.90
15969;DHT22;8085;53.472;9.794;2024-02-21T03:37:14;9.20;99.90
15969;DHT22;8085;53.472;9.794;2024-02-21T03:39:41;9.20;99.90
15969;DHT22;8085;53.472;9.794;2024-02-21T03:42:08;9.20;99.90
15969;DHT22;8085;53.472;9.794;2024-02-21T03:44:36;9.20;99.90
15969;DHT22;8085;53.472;9.794;2024-02-21T03:47:03;9.20;99.90
15969;DHT22;8085;53.472;9.794;2024-02-21T03:49:31;9.20;99.90
15969;DHT22;8085;53.472;9.794;2024-02-21T03:51:58;9.20;99.90
15969;DHT22;8085;53.472;9.794;2024-02-21T03:54:25;9.20;99.90
15969;DHT22;8085;53.472;9.794;2024-02-21T03:56:52;9.20;99.90
15969;DHT22;8085;53.472;9.794;2024-02-21T03:59:18;9.10;99.90
15969;DHT22;8085;53.472;9.794;2024-02-21T04:01:45;9.20;99.90
15969;DHT22;8085;53.472;9.794;2024-02-21T04:04:12;9.20;99.90
15969;DHT22;8085;53.472;9.794;2024-02-21T04:06:47;9.20;99.90
15969;DHT22;8085;53.472;9.794;2024-02-21T04:09:14;9.20;99.90
15969;DHT22;8085;53.472;9.794;2024-02-21T04:11:41;9.10;99.90
15969;DHT22;8085;53.472;9.794;2024-02-21T04:14:08;9.10;99.90
15969;DHT22;8085;53.472;9.794;2024-02-21T04:16:36;9.10;99.90
15969;DHT22;8085;53.472;9.794;2024-02-21T04:19:03;9.10;99.90
15969;DHT22;8085;53.472;9.794;2024-02-21T04:21:30;9.10;99.90
15969;DHT22;8085;53.472;9.794;2024-02-21T04:23:58;9.00;99.90
15969;DHT22;8085;53.472;9.794;2024-02-21T04:26:26;9.00;99.90
15969;DHT22;8085;53.472;9.794;2024-02-21T04:28:53;9.00;99.90
15969;DHT22;8085;53.472;9.794;2024-02-21T04:31:19;9.00;99.90
15969;DHT22;8085;53.472;9.794;2024-02-21T04:33:46;9.00;99.90
15969;DHT22;8085;53.472;9.794;2024-02-21T04:36:13;8.90;99.90
15969;DHT22;8085;53.472;9.794;2024-02-21T04:38:40;8.90;99.90
15969;DHT22;8085;53.472;9.794;2024-02-21T04:41:08;8.90;99.90
15969;DHT22;8085;53.472;9.794;2024-02-21T04:43:35;8.90;99.90
15969;DHT22;8085;53.472;9.794;2024-02-21T04:46:02;8.90;99.90
15969;DHT22;8085;53.472;9.794;2024-02-21T04:48:29;8.80;99.90
15969;DHT22;8085;53.472;9.794;2024-02-21T04:50:56;8.80;99.90
15969;DHT22;8085;53.472;9.794;2024-02-21T04:53:23;8.80;99.90
15969;DHT22;8085;53.472;9.794;2024-02-21T04:55:50;8.80;99.90
15969;DHT22;8085;53.472;9.794;2024-02-21T04:58:18;8.90;99.90
15969;DHT22;8085;53.472;9.794;2024-02-21T05:00:45;8.80;99.90
15969;DHT22;8085;53.472;9.794;2024-02-21T05:03:11;8.80;99.90
15969;DHT22;8085;53.472;9.794;2024-02-21T05:05:38;8.80;99.90
15969;DHT22;8085;53.472;9.794;2024-02-21T05:08:05;8.70;99.90
15969;DHT22;8085;53.472;9.794;2024-02-21T05:10:32;8.70;99.90
15969;DHT22;8085;53.472;9.794;2024-02-21T05:12:59;8.80;99.90
15969;DHT22;8085;53.472;9.794;2024-02-21T05:15:27;8.70;99.90
15969;DHT22;8085;53.472;9.794;2024-02-21T05:17:54;8.70;99.90
15969;DHT22;8085;53.472;9.794;2024-02-21T05:20:21;8.70;99.90
15969;DHT22;8085;53.472;9.794;2024-02-21T05:22:48;8.70;99.90
15969;DHT22;8085;53.472;9.794;2024-02-21T05:25:15;8.80;99.90
15969;DHT22;8085;53.472;9.794;2024-02-21T05:27:42;8.80;99.90
15969;DHT22;8085;53.472;9.794;2024-02-21T05:30:09;8.70;99.90
15969;DHT22;8085;53.472;9.794;2024-02-21T05:32:37;8.80;99.90
15969;DHT22;8085;53.472;9.794;2024-02-21T05:35:05;8.70;99.90
15969;DHT22;8085;53.472;9.794;2024-02-21T05:37:31;8.70;99.90
15969;DHT22;8085;53.472;9.794;2024-02-21T05:39:58;8.80;99.90
15969;DHT22;8085;53.472;9.794;2024-02-21T05:42:25;8.70;99.90
15969;DHT22;8085;53.472;9.794;2024-02-21T05:44:52;8.70;99.90
15969;DHT22;8085;53.472;9.794;2024-02-21T05:47:19;8.70;99.90
15969;DHT22;8085;53.472;9.794;2024-02-21T05:49:47;8.70;99.90
15969;DHT22;8085;53.472;9.794;2024-02-21T05:52:14;8.70;99.90
15969;DHT22;8085;53.472;9.794;2024-02-21T05:54:41;8.70;99.90
15969;DHT22;8085;53.472;9.794;2024-02-21T05:57:08;8.70;99.90
15969;DHT22;8085;53.472;9.794;2024-02-21T05:59:37;8.70;99.90
15969;DHT22;8085;53.472;9.794;2024-02-21T06:02:05;8.60;99.90
15969;DHT22;8085;53.472;9.794;2024-02-21T06:04:32;8.60;99.90
15969;DHT22;8085;53.472;9.794;2024-02-21T06:07:01;8.70;99.90
15969;DHT22;8085;53.472;9.794;2024-02-21T06:09:28;8.70;99.90
15969;DHT22;8085;53.472;9.794;2024-02-21T06:11:54;8.70;99.90
15969;DHT22;8085;53.472;9.794;2024-02-21T06:14:21;8.70;99.90
15969;DHT22;8085;53.472;9.794;2024-02-21T06:16:48;8.70;99.90
15969;DHT22;8085;53.472;9.794;2024-02-21T06:19:15;8.70;99.90
15969;DHT22;8085;53.472;9.794;2024-02-21T06:21:42;8.70;99.90
15969;DHT22;8085;53.472;9.794;2024-02-21T06:24:10;8.70;99.90
15969;DHT22;8085;53.472;9.794;2024-02-21T06:26:38;8.70;99.90
15969;DHT22;8085;53.472;9.794;2024-02-21T06:29:05;8.70;99.90
15969;DHT22;8085;53.472;9.794;2024-02-21T06:31:32;8.70;99.90
15969;DHT22;8085;53.472;9.794;2024-02-21T06:33:59;8.80;99.90
15969;DHT22;8085;53.472;9.794;2024-02-21T06:36:26;8.60;99.90
15969;DHT22;8085;53.472;9.794;2024-02-21T06:38:53;8.80;99.90
15969;DHT22;8085;53.472;9.794;2024-02-21T06:41:21;8.70;99.90
15969;DHT22;8085;53.472;9.794;2024-02-21T06:43:48;8.70;99.90
15969;DHT22;8085;53.472;9.794;2024-02-21T06:46:23;8.90;99.90
15969;DHT22;8085;53.472;9.794;2024-02-21T06:48:50;8.80;99.90
15969;DHT22;8085;53.472;9.794;2024-02-21T06:51:17;8.80;99.90
15969;DHT22;8085;53.472;9.794;2024-02-21T06:53:44;8.80;99.90
15969;DHT22;8085;53.472;9.794;2024-02-21T06:56:11;8.80;99.90
15969;DHT22;8085;53.472;9.794;2024-02-21T06:58:39;8.80;99.90
15969;DHT22;8085;53.472;9.794;2024-02-21T07:01:06;8.80;99.90
15969;DHT22;8085;53.472;9.794;2024-02-21T07:03:33;8.80;99.90
15969;DHT22;8085;53.472;9.794;2024-02-21T07:06:00;8.80;99.90
15969;DHT22;8085;53.472;9.794;2024-02-21T07:08:27;8.80;99.90
15969;DHT22;8085;53.472;9.794;2024-02-21T07:10:54;8.80;99.90
15969;DHT22;8085;53.472;9.794;2024-02-21T07:13:21;8.80;99.90
15969;DHT22;8085;53.472;9.794;2024-02-21T07:15:49;8.80;99.90
15969;DHT22;8085;53.472;9.794;2024-02-21T07:18:16;8.80;99.90
15969;DHT22;8085;53.472;9.794;2024-02-21T07:20:43;8.90;99.90
15969;DHT22;8085;53.472;9.794;2024-02-21T07:23:10;8.90;99.90
15969;DHT22;8085;53.472;9.794;2024-02-21T07:25:37;8.90;99.90
15969;DHT22;8085;53.472;9.794;2024-02-21T07:28:05;8.90;99.90
15969;DHT22;8085;53.472;9.794;2024-02-21T07:30:32;8.90;99.90
15969;DHT22;8085;53.472;9.794;2024-02-21T07:33:00;8.80;99.90
15969;DHT22;8085;53.472;9.794;2024-02-21T07:35:27;8.90;99.90
15969;DHT22;8085;53.472;9.794;2024-02-21T07:37:54;8.80;99.90
15969;DHT22;8085;53.472;9.794;2024-02-21T07:40:21;8.80;99.90
15969;DHT22;8085;53.472;9.794;2024-02-21T07:42:47;8.80;99.90
15969;DHT22;8085;53.472;9.794;2024-02-21T07:45:14;8.80;99.90
15969;DHT22;8085;53.472;9.794;2024-02-21T07:47:41;8.80;99.90
15969;DHT22;8085;53.472;9.794;2024-02-21T07:50:10;8.90;99.90
15969;DHT22;8085;53.472;9.794;2024-02-21T07:52:37;8.90;99.90
15969;DHT22;8085;53.472;9.794;2024-02-21T07:55:04;8.80;99.90
15969;DHT22;8085;53.472;9.794;2024-02-21T07:57:31;8.80;99.90
15969;DHT22;8085;53.472;9.794;2024-02-21T07:59:58;8.80;99.90
15969;DHT22;8085;53.472;9.794;2024-02-21T08:02:25;8.80;99.90
15969;DHT22;8085;53.472;9.794;2024-02-21T08:04:52;8.80;99.90
15969;DHT22;8085;53.472;9.794;2024-02-21T08:07:20;8.80;99.90
15969;DHT22;8085;53.472;9.794;2024-02-21T08:09:47;8.80;99.90
15969;DHT22;8085;53.472;9.794;2024-02-21T08:12:14;8.80;99.90
15969;DHT22;8085;53.472;9.794;2024-02-21T08:14:40;8.80;99.90
15969;DHT22;8085;53.472;9.794;2024-02-21T08:17:08;8.80;99.90
15969;DHT22;8085;53.472;9.794;2024-02-21T08:19:35;8.80;99.90
15969;DHT22;8085;53.472;9.794;2024-02-21T08:22:02;8.80;99.90
15969;DHT22;8085;53.472;9.794;2024-02-21T08:24:31;8.90;99.90
15969;DHT22;8085;53.472;9.794;2024-02-21T08:26:58;8.90;99.90
15969;DHT22;8085;53.472;9.794;2024-02-21T08:29:25;8.70;99.90
15969;DHT22;8085;53.472;9.794;2024-02-21T08:31:53;8.90;99.90
15969;DHT22;8085;53.472;9.794;2024-02-21T08:34:20;8.90;99.90
15969;DHT22;8085;53.472;9.794;2024-02-21T08:36:46;8.80;99.90
15969;DHT22;8085;53.472;9.794;2024-02-21T08:39:13;8.90;99.90
15969;DHT22;8085;53.472;9.794;2024-02-21T08:41:43;8.90;99.90
15969;DHT22;8085;53.472;9.794;2024-02-21T08:44:10;8.90;99.90
15969;DHT22;8085;53.472;9.794;2024-02-21T08:46:37;8.90;99.90
15969;DHT22;8085;53.472;9.794;2024-02-21T08:49:05;8.90;99.90
15969;DHT22;8085;53.472;9.794;2024-02-21T08:51:32;8.90;99.90
15969;DHT22;8085;53.472;9.794;2024-02-21T08:53:59;8.90;99.90
15969;DHT22;8085;53.472;9.794;2024-02-21T08:56:26;8.90;99.90
15969;DHT22;8085;53.472;9.794;2024-02-21T08:58:54;8.90;99.90
15969;DHT22;8085;53.472;9.794;2024-02-21T09:01:22;8.90;99.90
15969;DHT22;8085;53.472;9.794;2024-02-21T09:03:49;9.00;99.90
15969;DHT22;8085;53.472;9.794;2024-02-21T09:06:19;9.00;99.90
15969;DHT22;8085;53.472;9.794;2024-02-21T09:08:46;9.00;99.90
15969;DHT22;8085;53.472;9.794;2024-02-21T09:11:13;8.90;99.90
15969;DHT22;8085;53.472;9.794;2024-02-21T09:13:40;9.10;99.90
15969;DHT22;8085;53.472;9.794;2024-02-21T09:16:08;8.90;99.90
15969;DHT22;8085;53.472;9.794;2024-02-21T09:18:35;9.00;99.90
15969;DHT22;8085;53.472;9.794;2024-02-21T09:21:02;9.00;99.90
15969;DHT22;8085;53.472;9.794;2024-02-21T09:23:30;9.00;99.90
15969;DHT22;8085;53.472;9.794;2024-02-21T09:25:57;9.00;99.90
15969;DHT22;8085;53.472;9.794;2024-02-21T09:28:26;9.00;99.90
15969;DHT22;8085;53.472;9.794;2024-02-21T09:30:53;9.00;99.90
15969;DHT22;8085;53.472;9.794;2024-02-21T09:33:21;9.00;99.90
15969;DHT22;8085;53.472;9.794;2024-02-21T09:35:48;9.00;99.90
15969;DHT22;8085;53.472;9.794;2024-02-21T09:38:15;9.10;99.90
15969;DHT22;8085;53.472;9.794;2024-02-21T09:40:42;9.10;99.90
15969;DHT22;8085;53.472;9.794;2024-02-21T09:43:09;9.00;99.90
15969;DHT22;8085;53.472;9.794;2024-02-21T09:45:38;9.00;99.90
15969;DHT22;8085;53.472;9.794;2024-02-21T09:48:28;9.00;99.90
15969;DHT22;8085;53.472;9.794;2024-02-21T09:50:57;9.10;99.90
15969;DHT22;8085;53.472;9.794;2024-02-21T09:53:26;9.00;99.90
15969;DHT22;8085;53.472;9.794;2024-02-21T09:55:55;9.00;99.90
15969;DHT22;8085;53.472;9.794;2024-02-21T09:58:22;9.10;99.90
15969;DHT22;8085;53.472;9.794;2024-02-21T10:00:51;9.00;99.90
15969;DHT22;8085;53.472;9.794;2024-02-21T10:03:18;9.10;99.90
15969;DHT22;8085;53.472;9.794;2024-02-21T10:05:48;9.20;99.90
15969;DHT22;8085;53.472;9.794;2024-02-21T10:08:16;9.00;99.90
15969;DHT22;8085;53.472;9.794;2024-02-21T10:10:43;9.00;99.90
15969;DHT22;8085;53.472;9.794;2024-02-21T10:13:10;9.10;99.90
15969;DHT22;8085;53.472;9.794;2024-02-21T10:15:37;9.00;99.90
15969;DHT22;8085;53.472;9.794;2024-02-21T10:18:04;9.10;99.90
15969;DHT22;8085;53.472;9.794;2024-02-21T10:20:32;9.10;99.90
15969;DHT22;8085;53.472;9.794;2024-02-21T10:23:05;9.20;99.90
15969;DHT22;8085;53.472;9.794;2024-02-21T10:25:34;9.10;99.90
15969;DHT22;8085;53.472;9.794;2024-02-21T10:28:04;9.20;99.90
15969;DHT22;8085;53.472;9.794;2024-02-21T10:30:31;9.20;99.90
15969;DHT22;8085;53.472;9.794;2024-02-21T10:32:57;9.20;99.90
15969;DHT22;8085;53.472;9.794;2024-02-21T10:35:28;9.20;99.90
15969;DHT22;8085;53.472;9.794;2024-02-21T10:37:56;9.20;99.90
15969;DHT22;8085;53.472;9.794;2024-02-21T10:40:29;9.20;99.90
15969;DHT22;8085;53.472;9.794;2024-02-21T10:42:57;9.30;99.90
15969;DHT22;8085;53.472;9.794;2024-02-21T10:45:29;9.30;99.90
15969;DHT22;8085;53.472;9.794;2024-02-21T10:48:08;9.30;99.90
15969;DHT22;8085;53.472;9.794;2024-02-21T10:51:03;9.30;99.90
15969;DHT22;8085;53.472;9.794;2024-02-21T10:53:40;9.30;99.90
15969;DHT22;8085;53.472;9.794;2024-02-21T10:56:21;9.30;99.90
15969;DHT22;8085;53.472;9.794;2024-02-21T10:58:49;9.30;99.90
15969;DHT22;8085;53.472;9.794;2024-02-21T11:01:17;9.30;99.90
15969;DHT22;8085;53.472;9.794;2024-02-21T11:03:48;9.40;99.90
15969;DHT22;8085;53.472;9.794;2024-02-21T11:06:17;9.40;99.90
15969;DHT22;8085;53.472;9.794;2024-02-21T11:08:44;9.40;99.90
15969;DHT22;8085;53.472;9.794;2024-02-21T11:11:13;9.40;99.90
15969;DHT22;8085;53.472;9.794;2024-02-21T11:13:44;9.30;99.90
15969;DHT22;8085;53.472;9.794;2024-02-21T11:16:22;9.40;99.90
15969;DHT22;8085;53.472;9.794;2024-02-21T11:18:49;9.40;99.90
15969;DHT22;8085;53.472;9.794;2024-02-21T11:21:16;9.40;99.90
15969;DHT22;8085;53.472;9.794;2024-02-21T11:23:43;9.40;99.90
15969;DHT22;8085;53.472;9.794;2024-02-21T11:26:10;9.40;99.90
15969;DHT22;8085;53.472;9.794;2024-02-21T11:28:56;9.40;99.90
15969;DHT22;8085;53.472;9.794;2024-02-21T11:31:23;9.40;99.90
15969;DHT22;8085;53.472;9.794;2024-02-21T11:33:51;9.50;99.90
15969;DHT22;8085;53.472;9.794;2024-02-21T11:36:24;9.50;99.90
15969;DHT22;8085;53.472;9.794;2024-02-21T11:38:51;9.40;99.90
15969;DHT22;8085;53.472;9.794;2024-02-21T11:41:18;9.50;99.90
15969;DHT22;8085;53.472;9.794;2024-02-21T11:43:48;9.50;99.90
15969;DHT22;8085;53.472;9.794;2024-02-21T11:46:16;9.50;99.90
15969;DHT22;8085;53.472;9.794;2024-02-21T11:48:43;9.40;99.90
15969;DHT22;8085;53.472;9.794;2024-02-21T11:51:21;9.40;99.90
15969;DHT22;8085;53.472;9.794;2024-02-21T11:53:50;9.40;99.90
15969;DHT22;8085;53.472;9.794;2024-02-21T11:56:18;9.40;99.90
15969;DHT22;8085;53.472;9.794;2024-02-21T11:58:46;9.50;99.90
15969;DHT22;8085;53.472;9.794;2024-02-21T12:01:14;9.40;99.90
15969;DHT22;8085;53.472;9.794;2024-02-21T12:03:42;9.40;99.90
15969;DHT22;8085;53.472;9.794;2024-02-21T12:06:16;9.40;99.90
15969;DHT22;8085;53.472;9.794;2024-02-21T12:08:45;9.40;99.90
15969;DHT22;8085;53.472;9.794;2024-02-21T12:11:17;9.40;99.90
15969;DHT22;8085;53.472;9.794;2024-02-21T12:13:46;9.40;99.90
15969;DHT22;8085;53.472;9.794;2024-02-21T12:16:15;9.40;99.90
15969;DHT22;8085;53.472;9.794;2024-02-21T12:18:43;9.40;99.90
15969;DHT22;8085;53.472;9.794;2024-02-21T12:21:10;9.30;99.90
15969;DHT22;8085;53.472;9.794;2024-02-21T12:23:38;9.30;99.90
15969;DHT22;8085;53.472;9.794;2024-02-21T12:26:05;9.30;99.90
15969;DHT22;8085;53.472;9.794;2024-02-21T12:28:33;9.20;99.90
15969;DHT22;8085;53.472;9.794;2024-02-21T12:31:01;9.20;99.90
15969;DHT22;8085;53.472;9.794;2024-02-21T12:33:30;9.20;99.90
15969;DHT22;8085;53.472;9.794;2024-02-21T12:35:57;9.20;99.90
15969;DHT22;8085;53.472;9.794;2024-02-21T12:38:24;9.20;99.90
15969;DHT22;8085;53.472;9.794;2024-02-21T12:40:51;9.30;99.90
15969;DHT22;8085;53.472;9.794;2024-02-21T12:43:18;9.30;99.90
15969;DHT22;8085;53.472;9.794;2024-02-21T12:45:45;9.30;99.90
15969;DHT22;8085;53.472;9.794;2024-02-21T12:48:13;9.40;99.90
15969;DHT22;8085;53.472;9.794;2024-02-21T12:50:40;9.50;99.90
15969;DHT22;8085;53.472;9.794;2024-02-21T12:53:10;9.40;99.90
15969;DHT22;8085;53.472;9.794;2024-02-21T12:55:37;9.40;99.90
15969;DHT22;8085;53.472;9.794;2024-02-21T12:58:04;9.50;99.90
15969;DHT22;8085;53.472;9.794;2024-02-21T13:00:32;9.50;99.90
15969;DHT22;8085;53.472;9.794;2024-02-21T13:03:01;9.60;99.90
15969;DHT22;8085;53.472;9.794;2024-02-21T13:05:29;9.70;99.90
15969;DHT22;8085;53.472;9.794;2024-02-21T13:07:57;9.70;99.90
15969;DHT22;8085;53.472;9.794;2024-02-21T13:10:24;9.70;99.90
15969;DHT22;8085;53.472;9.794;2024-02-21T13:12:52;9.80;99.90
15969;DHT22;8085;53.472;9.794;2024-02-21T13:15:20;9.80;99.90
15969;DHT22;8085;53.472;9.794;2024-02-21T13:17:46;9.80;99.90
15969;DHT22;8085;53.472;9.794;2024-02-21T13:20:13;9.80;99.90
15969;DHT22;8085;53.472;9.794;2024-02-21T13:22:42;9.80;99.90
15969;DHT22;8085;53.472;9.794;2024-02-21T13:25:09;9.80;99.90
15969;DHT22;8085;53.472;9.794;2024-02-21T13:27:36;9.80;99.90
15969;DHT22;8085;53.472;9.794;2024-02-21T13:30:03;9.80;99.90
15969;DHT22;8085;53.472;9.794;2024-02-21T13:32:32;9.90;99.90
15969;DHT22;8085;53.472;9.794;2024-02-21T13:34:59;10.00;99.90
15969;DHT22;8085;53.472;9.794;2024-02-21T13:37:27;10.00;99.90
15969;DHT22;8085;53.472;9.794;2024-02-21T13:39:55;10.00;99.90
15969;DHT22;8085;53.472;9.794;2024-02-21T13:42:22;10.00;99.90
15969;DHT22;8085;53.472;9.794;2024-02-21T13:44:51;10.00;99.90
15969;DHT22;8085;53.472;9.794;2024-02-21T13:47:17;10.10;99.90
15969;DHT22;8085;53.472;9.794;2024-02-21T13:49:44;10.10;99.90
15969;DHT22;8085;53.472;9.794;2024-02-21T13:52:11;10.20;99.90
15969;DHT22;8085;53.472;9.794;2024-02-21T13:54:38;10.20;99.90
15969;DHT22;8085;53.472;9.794;2024-02-21T13:57:06;10.20;99.90
15969;DHT22;8085;53.472;9.794;2024-02-21T13:59:33;10.20;99.90
15969;DHT22;8085;53.472;9.794;2024-02-21T14:02:00;10.20;99.90
15969;DHT22;8085;53.472;9.794;2024-02-21T14:04:27;10.20;99.90
15969;DHT22;8085;53.472;9.794;2024-02-21T14:06:55;10.30;99.90
15969;DHT22;8085;53.472;9.794;2024-02-21T14:09:22;10.30;99.90
15969;DHT22;8085;53.472;9.794;2024-02-21T14:11:49;10.30;99.90
15969;DHT22;8085;53.472;9.794;2024-02-21T14:14:17;10.40;99.90
15969;DHT22;8085;53.472;9.794;2024-02-21T14:16:44;10.40;99.90
15969;DHT22;8085;53.472;9.794;2024-02-21T14:19:13;10.40;99.90
15969;DHT22;8085;53.472;9.794;2024-02-21T14:21:40;10.60;99.90
15969;DHT22;8085;53.472;9.794;2024-02-21T14:24:07;10.50;99.90
15969;DHT22;8085;53.472;9.794;2024-02-21T14:26:34;10.50;99.90
15969;DHT22;8085;53.472;9.794;2024-02-21T14:29:02;10.50;99.90
15969;DHT22;8085;53.472;9.794;2024-02-21T14:31:31;10.60;99.90
15969;DHT22;8085;53.472;9.794;2024-02-21T14:33:58;10.50;99.90
15969;DHT22;8085;53.472;9.794;2024-02-21T14:36:26;10.50;99.90
15969;DHT22;8085;53.472;9.794;2024-02-21T14:38:52;10.50;99.90
15969;DHT22;8085;53.472;9.794;2024-02-21T14:41:19;10.60;99.90
15969;DHT22;8085;53.472;9.794;2024-02-21T14:43:46;10.60;99.90
15969;DHT22;8085;53.472;9.794;2024-02-21T14:46:13;10.50;99.90
15969;DHT22;8085;53.472;9.794;2024-02-21T14:48:41;10.60;99.90
15969;DHT22;8085;53.472;9.794;2024-02-21T14:51:08;10.40;99.90
15969;DHT22;8085;53.472;9.794;2024-02-21T14:53:35;10.40;99.90
15969;DHT22;8085;53.472;9.794;2024-02-21T14:56:02;10.40;99.90
15969;DHT22;8085;53.472;9.794;2024-02-21T14:58:29;10.40;99.90
15969;DHT22;8085;53.472;9.794;2024-02-21T15:00:56;10.40;99.90
15969;DHT22;8085;53.472;9.794;2024-02-21T15:03:23;10.50;99.90
15969;DHT22;8085;53.472;9.794;2024-02-21T15:05:54;10.50;99.90
15969;DHT22;8085;53.472;9.794;2024-02-21T15:08:21;10.40;99.90
15969;DHT22;8085;53.472;9.794;2024-02-21T15:10:48;10.40;99.90
15969;DHT22;8085;53.472;9.794;2024-02-21T15:13:15;10.20;99.90
15969;DHT22;8085;53.472;9.794;2024-02-21T15:15:42;10.20;99.90
15969;DHT22;8085;53.472;9.794;2024-02-21T15:18:09;10.20;99.90
15969;DHT22;8085;53.472;9.794;2024-02-21T15:20:36;10.20;99.90
15969;DHT22;8085;53.472;9.794;2024-02-21T15:23:05;10.20;99.90
15969;DHT22;8085;53.472;9.794;2024-02-21T15:25:31;10.10;99.90
15969;DHT22;8085;53.472;9.794;2024-02-21T15:27:59;10.10;99.90
15969;DHT22;8085;53.472;9.794;2024-02-21T15:30:28;10.30;99.90
15969;DHT22;8085;53.472;9.794;2024-02-21T15:32:57;10.10;99.90
15969;DHT22;8085;53.472;9.794;2024-02-21T15:35:27;10.10;99.90
15969;DHT22;8085;53.472;9.794;2024-02-21T15:37:54;10.00;99.90
15969;DHT22;8085;53.472;9.794;2024-02-21T15:40:23;10.10;99.90
15969;DHT22;8085;53.472;9.794;2024-02-21T15:42:50;10.00;99.90
15969;DHT22;8085;53.472;9.794;2024-02-21T15:45:17;10.10;99.90
15969;DHT22;8085;53.472;9.794;2024-02-21T15:47:44;10.00;99.90
15969;DHT22;8085;53.472;9.794;2024-02-21T15:50:11;10.00;99.90
15969;DHT22;8085;53.472;9.794;2024-02-21T15:52:37;10.00;99.90
15969;DHT22;8085;53.472;9.794;2024-02-21T15:55:05;9.90;99.90
15969;DHT22;8085;53.472;9.794;2024-02-21T15:57:37;9.90;99.90
15969;DHT22;8085;53.472;9.794;2024-02-21T16:00:05;9.80;99.90
15969;DHT22;8085;53.472;9.794;2024-02-21T16:02:36;9.80;99.90